sensor_id;sensor_type;location;lat;lon;timestamp;P1;durP1;ratioP1;P2;durP2;ratioP2
920;SDS011;447;51.332;6.778;2023-05-14T00:01:34;5.73;;;5.23;;
920;SDS011;447;51.332;6.778;2023-05-14T00:04:01;5.10;;;4.70;;
920;SDS011;447;51.332;6.778;2023-05-14T00:06:27;5.93;;;5.20;;
920;SDS011;447;51.332;6.778;2023-05-14T00:08:54;5.97;;;5.37;;
920;SDS011;447;51.332;6.778;2023-05-14T00:11:19;7.20;;;5.37;;
920;SDS011;447;51.332;6.778;2023-05-14T00:13:46;6.30;;;5.70;;
920;SDS011;447;51.332;6.778;2023-05-14T00:16:12;5.23;;;4.73;;
920;SDS011;447;51.332;6.778;2023-05-14T00:18:38;5.40;;;4.90;;
920;SDS011;447;51.332;6.778;2023-05-14T00:21:03;5.70;;;5.30;;
920;SDS011;447;51.332;6.778;2023-05-14T00:23:29;6.10;;;5.60;;
920;SDS011;447;51.332;6.778;2023-05-14T00:25:55;6.07;;;5.57;;
920;SDS011;447;51.332;6.778;2023-05-14T00:28:21;6.63;;;6.00;;
920;SDS011;447;51.332;6.778;2023-05-14T00:30:47;7.13;;;6.50;;
920;SDS011;447;51.332;6.778;2023-05-14T00:33:14;6.20;;;5.60;;
920;SDS011;447;51.332;6.778;2023-05-14T00:35:40;7.90;;;6.00;;
920;SDS011;447;51.332;6.778;2023-05-14T00:38:06;6.10;;;5.60;;
920;SDS011;447;51.332;6.778;2023-05-14T00:40:33;6.20;;;5.60;;
920;SDS011;447;51.332;6.778;2023-05-14T00:42:59;6.20;;;5.70;;
920;SDS011;447;51.332;6.778;2023-05-14T00:45:24;7.77;;;5.53;;
920;SDS011;447;51.332;6.778;2023-05-14T00:47:51;7.37;;;5.60;;
920;SDS011;447;51.332;6.778;2023-05-14T00:50:18;7.20;;;5.90;;
920;SDS011;447;51.332;6.778;2023-05-14T00:52:45;5.93;;;5.33;;
920;SDS011;447;51.332;6.778;2023-05-14T00:55:12;5.67;;;5.13;;
920;SDS011;447;51.332;6.778;2023-05-14T00:57:41;6.30;;;5.80;;
920;SDS011;447;51.332;6.778;2023-05-14T01:00:07;6.43;;;5.60;;
920;SDS011;447;51.332;6.778;2023-05-14T01:02:34;6.90;;;6.20;;
920;SDS011;447;51.332;6.778;2023-05-14T01:05:00;5.93;;;5.43;;
920;SDS011;447;51.332;6.778;2023-05-14T01:07:32;7.00;;;5.53;;
920;SDS011;447;51.332;6.778;2023-05-14T01:10:14;7.17;;;6.47;;
920;SDS011;447;51.332;6.778;2023-05-14T01:15:25;6.10;;;5.60;;
920;SDS011;447;51.332;6.778;2023-05-14T01:17:59;6.33;;;5.73;;
920;SDS011;447;51.332;6.778;2023-05-14T01:20:28;6.47;;;5.87;;
920;SDS011;447;51.332;6.778;2023-05-14T01:22:55;6.43;;;5.87;;
920;SDS011;447;51.332;6.778;2023-05-14T01:25:21;5.30;;;4.90;;
920;SDS011;447;51.332;6.778;2023-05-14T01:28:04;8.40;;;6.10;;
920;SDS011;447;51.332;6.778;2023-05-14T01:31:35;7.63;;;5.70;;
920;SDS011;447;51.332;6.778;2023-05-14T01:33:34;8.37;;;6.00;;
920;SDS011;447;51.332;6.778;2023-05-14T01:36:01;6.40;;;5.90;;
920;SDS011;447;51.332;6.778;2023-05-14T01:38:30;6.43;;;5.93;;
920;SDS011;447;51.332;6.778;2023-05-14T01:40:58;5.93;;;5.43;;
920;SDS011;447;51.332;6.778;2023-05-14T01:43:25;6.70;;;6.00;;
920;SDS011;447;51.332;6.778;2023-05-14T01:45:51;6.07;;;5.47;;
920;SDS011;447;51.332;6.778;2023-05-14T01:48:19;6.30;;;5.70;;
920;SDS011;447;51.332;6.778;2023-05-14T01:50:45;5.80;;;5.27;;
920;SDS011;447;51.332;6.778;2023-05-14T01:53:11;6.47;;;5.97;;
920;SDS011;447;51.332;6.778;2023-05-14T01:55:37;6.43;;;5.80;;
920;SDS011;447;51.332;6.778;2023-05-14T01:58:04;7.10;;;6.40;;
920;SDS011;447;51.332;6.778;2023-05-14T02:00:32;8.57;;;7.13;;
920;SDS011;447;51.332;6.778;2023-05-14T02:03:00;6.30;;;5.70;;
920;SDS011;447;51.332;6.778;2023-05-14T02:05:26;6.10;;;5.60;;
920;SDS011;447;51.332;6.778;2023-05-14T02:07:53;7.27;;;6.57;;
920;SDS011;447;51.332;6.778;2023-05-14T02:10:19;8.37;;;6.77;;
920;SDS011;447;51.332;6.778;2023-05-14T02:12:48;6.27;;;5.67;;
920;SDS011;447;51.332;6.778;2023-05-14T02:15:14;9.03;;;6.03;;
920;SDS011;447;51.332;6.778;2023-05-14T02:17:40;8.43;;;6.50;;
920;SDS011;447;51.332;6.778;2023-05-14T02:20:06;6.47;;;5.90;;
920;SDS011;447;51.332;6.778;2023-05-14T02:22:40;6.60;;;5.70;;
920;SDS011;447;51.332;6.778;2023-05-14T02:25:09;8.00;;;6.90;;
920;SDS011;447;51.332;6.778;2023-05-14T02:27:35;6.80;;;6.20;;
920;SDS011;447;51.332;6.778;2023-05-14T02:30:02;8.13;;;6.23;;
920;SDS011;447;51.332;6.778;2023-05-14T02:32:28;6.80;;;6.20;;
920;SDS011;447;51.332;6.778;2023-05-14T02:34:54;6.90;;;6.30;;
920;SDS011;447;51.332;6.778;2023-05-14T02:37:20;8.40;;;7.03;;
920;SDS011;447;51.332;6.778;2023-05-14T02:39:46;6.47;;;5.87;;
920;SDS011;447;51.332;6.778;2023-05-14T02:42:14;7.40;;;6.70;;
920;SDS011;447;51.332;6.778;2023-05-14T02:44:40;6.70;;;6.00;;
920;SDS011;447;51.332;6.778;2023-05-14T02:47:06;7.00;;;6.40;;
920;SDS011;447;51.332;6.778;2023-05-14T02:49:32;6.90;;;6.20;;
920;SDS011;447;51.332;6.778;2023-05-14T02:51:58;7.00;;;6.30;;
920;SDS011;447;51.332;6.778;2023-05-14T02:54:25;6.23;;;5.73;;
920;SDS011;447;51.332;6.778;2023-05-14T02:56:51;7.00;;;6.33;;
920;SDS011;447;51.332;6.778;2023-05-14T02:59:17;12.90;;;6.53;;
920;SDS011;447;51.332;6.778;2023-05-14T03:01:43;7.27;;;6.13;;
920;SDS011;447;51.332;6.778;2023-05-14T03:04:09;6.53;;;5.93;;
920;SDS011;447;51.332;6.778;2023-05-14T03:06:35;6.80;;;6.20;;
920;SDS011;447;51.332;6.778;2023-05-14T03:09:01;8.40;;;6.63;;
920;SDS011;447;51.332;6.778;2023-05-14T03:11:27;7.10;;;5.80;;
920;SDS011;447;51.332;6.778;2023-05-14T03:13:53;6.47;;;5.87;;
920;SDS011;447;51.332;6.778;2023-05-14T03:16:19;6.57;;;6.07;;
920;SDS011;447;51.332;6.778;2023-05-14T03:18:45;6.77;;;6.17;;
920;SDS011;447;51.332;6.778;2023-05-14T03:21:11;6.47;;;5.83;;
920;SDS011;447;51.332;6.778;2023-05-14T03:23:37;6.20;;;5.60;;
920;SDS011;447;51.332;6.778;2023-05-14T03:26:03;7.70;;;6.07;;
920;SDS011;447;51.332;6.778;2023-05-14T03:28:29;7.30;;;6.40;;
920;SDS011;447;51.332;6.778;2023-05-14T03:30:55;7.13;;;6.43;;
920;SDS011;447;51.332;6.778;2023-05-14T03:33:21;6.87;;;6.27;;
920;SDS011;447;51.332;6.778;2023-05-14T03:35:47;5.90;;;5.30;;
920;SDS011;447;51.332;6.778;2023-05-14T03:38:13;6.40;;;5.90;;
920;SDS011;447;51.332;6.778;2023-05-14T03:40:39;6.20;;;5.60;;
920;SDS011;447;51.332;6.778;2023-05-14T03:43:05;6.40;;;5.80;;
920;SDS011;447;51.332;6.778;2023-05-14T03:45:31;6.13;;;5.63;;
920;SDS011;447;51.332;6.778;2023-05-14T03:47:58;7.20;;;5.80;;
920;SDS011;447;51.332;6.778;2023-05-14T03:50:24;6.73;;;6.13;;
920;SDS011;447;51.332;6.778;2023-05-14T03:52:51;8.80;;;6.10;;
920;SDS011;447;51.332;6.778;2023-05-14T03:55:20;6.30;;;5.80;;
920;SDS011;447;51.332;6.778;2023-05-14T03:57:47;7.00;;;6.40;;
920;SDS011;447;51.332;6.778;2023-05-14T04:00:14;5.90;;;5.40;;
920;SDS011;447;51.332;6.778;2023-05-14T04:02:43;6.73;;;6.10;;
920;SDS011;447;51.332;6.778;2023-05-14T04:05:09;9.37;;;6.40;;
920;SDS011;447;51.332;6.778;2023-05-14T04:07:36;6.90;;;5.50;;
920;SDS011;447;51.332;6.778;2023-05-14T04:10:02;8.50;;;6.10;;
920;SDS011;447;51.332;6.778;2023-05-14T04:12:44;6.70;;;6.10;;
920;SDS011;447;51.332;6.778;2023-05-14T04:15:31;10.27;;;6.17;;
920;SDS011;447;51.332;6.778;2023-05-14T04:17:57;8.20;;;5.67;;
920;SDS011;447;51.332;6.778;2023-05-14T04:20:23;6.70;;;5.70;;
920;SDS011;447;51.332;6.778;2023-05-14T04:22:49;5.90;;;5.40;;
920;SDS011;447;51.332;6.778;2023-05-14T04:25:15;6.60;;;5.50;;
920;SDS011;447;51.332;6.778;2023-05-14T04:27:42;6.20;;;5.70;;
920;SDS011;447;51.332;6.778;2023-05-14T04:30:08;6.07;;;5.33;;
920;SDS011;447;51.332;6.778;2023-05-14T04:32:35;5.93;;;5.50;;
920;SDS011;447;51.332;6.778;2023-05-14T04:35:02;6.77;;;6.17;;
920;SDS011;447;51.332;6.778;2023-05-14T04:37:29;6.10;;;5.47;;
920;SDS011;447;51.332;6.778;2023-05-14T04:39:56;10.13;;;6.23;;
920;SDS011;447;51.332;6.778;2023-05-14T04:42:21;7.20;;;5.60;;
920;SDS011;447;51.332;6.778;2023-05-14T04:44:47;7.10;;;6.50;;
920;SDS011;447;51.332;6.778;2023-05-14T04:47:13;5.93;;;5.50;;
920;SDS011;447;51.332;6.778;2023-05-14T04:49:39;7.20;;;6.10;;
920;SDS011;447;51.332;6.778;2023-05-14T04:52:08;6.90;;;6.17;;
920;SDS011;447;51.332;6.778;2023-05-14T04:54:34;6.40;;;5.60;;
920;SDS011;447;51.332;6.778;2023-05-14T04:57:00;7.13;;;6.20;;
920;SDS011;447;51.332;6.778;2023-05-14T04:59:30;6.70;;;6.10;;
920;SDS011;447;51.332;6.778;2023-05-14T05:01:56;6.63;;;6.00;;
920;SDS011;447;51.332;6.778;2023-05-14T05:04:23;7.00;;;6.33;;
920;SDS011;447;51.332;6.778;2023-05-14T05:06:49;6.63;;;6.03;;
920;SDS011;447;51.332;6.778;2023-05-14T05:09:16;7.67;;;6.47;;
920;SDS011;447;51.332;6.778;2023-05-14T05:11:42;6.93;;;6.23;;
920;SDS011;447;51.332;6.778;2023-05-14T05:14:08;7.00;;;6.17;;
920;SDS011;447;51.332;6.778;2023-05-14T05:16:34;6.60;;;6.00;;
920;SDS011;447;51.332;6.778;2023-05-14T05:19:00;10.50;;;6.63;;
920;SDS011;447;51.332;6.778;2023-05-14T05:21:26;7.20;;;5.90;;
920;SDS011;447;51.332;6.778;2023-05-14T05:23:52;6.37;;;5.80;;
920;SDS011;447;51.332;6.778;2023-05-14T05:26:18;8.60;;;6.50;;
920;SDS011;447;51.332;6.778;2023-05-14T05:28:46;6.83;;;6.23;;
920;SDS011;447;51.332;6.778;2023-05-14T05:31:12;7.20;;;5.90;;
920;SDS011;447;51.332;6.778;2023-05-14T05:33:38;6.20;;;5.63;;
920;SDS011;447;51.332;6.778;2023-05-14T05:36:04;6.60;;;6.00;;
920;SDS011;447;51.332;6.778;2023-05-14T05:38:30;6.40;;;5.53;;
920;SDS011;447;51.332;6.778;2023-05-14T05:40:56;6.77;;;5.93;;
920;SDS011;447;51.332;6.778;2023-05-14T05:43:22;6.60;;;6.00;;
920;SDS011;447;51.332;6.778;2023-05-14T05:45:48;6.20;;;5.70;;
920;SDS011;447;51.332;6.778;2023-05-14T05:48:14;6.53;;;5.80;;
920;SDS011;447;51.332;6.778;2023-05-14T05:50:40;7.10;;;6.40;;
920;SDS011;447;51.332;6.778;2023-05-14T05:53:07;5.53;;;5.13;;
920;SDS011;447;51.332;6.778;2023-05-14T05:55:32;6.73;;;6.03;;
920;SDS011;447;51.332;6.778;2023-05-14T05:57:58;7.30;;;6.43;;
920;SDS011;447;51.332;6.778;2023-05-14T06:00:24;6.10;;;5.60;;
920;SDS011;447;51.332;6.778;2023-05-14T06:02:51;5.93;;;5.43;;
920;SDS011;447;51.332;6.778;2023-05-14T06:05:17;7.40;;;6.43;;
920;SDS011;447;51.332;6.778;2023-05-14T06:07:43;6.57;;;5.97;;
920;SDS011;447;51.332;6.778;2023-05-14T06:10:09;6.80;;;6.10;;
920;SDS011;447;51.332;6.778;2023-05-14T06:12:35;6.77;;;6.17;;
920;SDS011;447;51.332;6.778;2023-05-14T06:15:03;6.63;;;6.03;;
920;SDS011;447;51.332;6.778;2023-05-14T06:17:32;7.17;;;6.47;;
920;SDS011;447;51.332;6.778;2023-05-14T06:20:01;7.07;;;6.47;;
920;SDS011;447;51.332;6.778;2023-05-14T06:22:27;7.43;;;6.60;;
920;SDS011;447;51.332;6.778;2023-05-14T06:24:53;7.70;;;6.90;;
920;SDS011;447;51.332;6.778;2023-05-14T06:27:18;7.43;;;6.60;;
920;SDS011;447;51.332;6.778;2023-05-14T06:29:47;7.27;;;6.57;;
920;SDS011;447;51.332;6.778;2023-05-14T06:32:13;7.07;;;6.37;;
920;SDS011;447;51.332;6.778;2023-05-14T06:34:40;7.30;;;6.60;;
920;SDS011;447;51.332;6.778;2023-05-14T06:37:07;7.40;;;6.70;;
920;SDS011;447;51.332;6.778;2023-05-14T06:39:34;7.50;;;6.80;;
920;SDS011;447;51.332;6.778;2023-05-14T06:42:02;8.37;;;7.57;;
920;SDS011;447;51.332;6.778;2023-05-14T06:44:29;7.50;;;6.80;;
920;SDS011;447;51.332;6.778;2023-05-14T06:46:55;7.70;;;7.00;;
920;SDS011;447;51.332;6.778;2023-05-14T06:49:22;8.73;;;6.33;;
920;SDS011;447;51.332;6.778;2023-05-14T06:51:48;6.47;;;5.90;;
920;SDS011;447;51.332;6.778;2023-05-14T06:54:14;7.17;;;6.47;;
920;SDS011;447;51.332;6.778;2023-05-14T06:56:39;7.00;;;6.40;;
920;SDS011;447;51.332;6.778;2023-05-14T06:59:05;7.90;;;7.17;;
920;SDS011;447;51.332;6.778;2023-05-14T07:01:31;7.37;;;6.77;;
920;SDS011;447;51.332;6.778;2023-05-14T07:03:57;7.33;;;6.63;;
920;SDS011;447;51.332;6.778;2023-05-14T07:06:23;7.47;;;6.77;;
920;SDS011;447;51.332;6.778;2023-05-14T07:08:49;7.57;;;6.97;;
920;SDS011;447;51.332;6.778;2023-05-14T07:11:18;7.97;;;7.27;;
920;SDS011;447;51.332;6.778;2023-05-14T07:13:44;7.40;;;6.70;;
920;SDS011;447;51.332;6.778;2023-05-14T07:16:10;7.87;;;7.07;;
920;SDS011;447;51.332;6.778;2023-05-14T07:18:36;7.77;;;6.97;;
920;SDS011;447;51.332;6.778;2023-05-14T07:21:02;7.20;;;6.50;;
920;SDS011;447;51.332;6.778;2023-05-14T07:23:31;7.77;;;7.07;;
920;SDS011;447;51.332;6.778;2023-05-14T07:26:01;7.40;;;6.70;;
920;SDS011;447;51.332;6.778;2023-05-14T07:28:28;7.37;;;6.73;;
920;SDS011;447;51.332;6.778;2023-05-14T07:30:53;7.87;;;7.10;;
920;SDS011;447;51.332;6.778;2023-05-14T07:33:19;7.73;;;7.00;;
920;SDS011;447;51.332;6.778;2023-05-14T07:35:46;7.20;;;6.57;;
920;SDS011;447;51.332;6.778;2023-05-14T07:38:12;7.47;;;6.77;;
920;SDS011;447;51.332;6.778;2023-05-14T07:40:38;7.90;;;7.20;;
920;SDS011;447;51.332;6.778;2023-05-14T07:43:04;7.40;;;6.70;;
920;SDS011;447;51.332;6.778;2023-05-14T07:45:30;7.67;;;7.07;;
920;SDS011;447;51.332;6.778;2023-05-14T07:47:56;7.30;;;6.63;;
920;SDS011;447;51.332;6.778;2023-05-14T07:50:22;7.77;;;7.00;;
920;SDS011;447;51.332;6.778;2023-05-14T07:52:48;7.20;;;6.50;;
920;SDS011;447;51.332;6.778;2023-05-14T07:55:14;7.70;;;7.00;;
920;SDS011;447;51.332;6.778;2023-05-14T07:57:41;7.43;;;6.70;;
920;SDS011;447;51.332;6.778;2023-05-14T08:00:07;7.87;;;6.77;;
920;SDS011;447;51.332;6.778;2023-05-14T08:02:40;7.73;;;6.93;;
920;SDS011;447;51.332;6.778;2023-05-14T08:05:07;9.03;;;7.27;;
920;SDS011;447;51.332;6.778;2023-05-14T08:07:33;7.30;;;6.60;;
920;SDS011;447;51.332;6.778;2023-05-14T08:09:59;8.60;;;7.20;;
920;SDS011;447;51.332;6.778;2023-05-14T08:12:25;8.10;;;6.50;;
920;SDS011;447;51.332;6.778;2023-05-14T08:14:51;8.50;;;7.80;;
920;SDS011;447;51.332;6.778;2023-05-14T08:17:19;7.30;;;6.60;;
920;SDS011;447;51.332;6.778;2023-05-14T08:19:45;7.90;;;6.87;;
920;SDS011;447;51.332;6.778;2023-05-14T08:22:11;7.50;;;6.87;;
920;SDS011;447;51.332;6.778;2023-05-14T08:24:37;7.30;;;6.60;;
920;SDS011;447;51.332;6.778;2023-05-14T08:27:03;8.47;;;7.57;;
920;SDS011;447;51.332;6.778;2023-05-14T08:29:29;7.37;;;6.77;;
920;SDS011;447;51.332;6.778;2023-05-14T08:31:55;7.87;;;7.10;;
920;SDS011;447;51.332;6.778;2023-05-14T08:34:21;8.70;;;7.17;;
920;SDS011;447;51.332;6.778;2023-05-14T08:36:47;8.80;;;7.90;;
920;SDS011;447;51.332;6.778;2023-05-14T08:39:16;8.40;;;7.20;;
920;SDS011;447;51.332;6.778;2023-05-14T08:41:42;7.23;;;6.63;;
920;SDS011;447;51.332;6.778;2023-05-14T08:46:38;7.10;;;6.40;;
920;SDS011;447;51.332;6.778;2023-05-14T08:49:23;7.83;;;7.13;;
920;SDS011;447;51.332;6.778;2023-05-14T08:52:07;7.57;;;6.80;;
920;SDS011;447;51.332;6.778;2023-05-14T08:54:33;8.37;;;7.67;;
920;SDS011;447;51.332;6.778;2023-05-14T08:57:00;8.53;;;7.73;;
920;SDS011;447;51.332;6.778;2023-05-14T08:59:30;7.70;;;7.10;;
920;SDS011;447;51.332;6.778;2023-05-14T09:01:57;9.17;;;8.43;;
920;SDS011;447;51.332;6.778;2023-05-14T09:04:26;8.40;;;7.70;;
920;SDS011;447;51.332;6.778;2023-05-14T09:06:53;7.57;;;6.97;;
920;SDS011;447;51.332;6.778;2023-05-14T09:09:20;7.93;;;7.13;;
920;SDS011;447;51.332;6.778;2023-05-14T09:11:51;8.00;;;7.10;;
920;SDS011;447;51.332;6.778;2023-05-14T09:14:18;7.60;;;7.00;;
920;SDS011;447;51.332;6.778;2023-05-14T09:16:46;7.67;;;7.00;;
920;SDS011;447;51.332;6.778;2023-05-14T09:19:13;7.77;;;7.07;;
920;SDS011;447;51.332;6.778;2023-05-14T09:21:40;7.83;;;7.13;;
920;SDS011;447;51.332;6.778;2023-05-14T09:24:08;7.97;;;7.17;;
920;SDS011;447;51.332;6.778;2023-05-14T09:26:50;7.30;;;6.70;;
920;SDS011;447;51.332;6.778;2023-05-14T09:29:20;7.17;;;6.60;;
920;SDS011;447;51.332;6.778;2023-05-14T09:31:50;8.43;;;7.63;;
920;SDS011;447;51.332;6.778;2023-05-14T09:34:28;7.30;;;6.70;;
920;SDS011;447;51.332;6.778;2023-05-14T09:37:03;7.57;;;6.77;;
920;SDS011;447;51.332;6.778;2023-05-14T09:39:31;7.40;;;6.67;;
920;SDS011;447;51.332;6.778;2023-05-14T09:41:58;6.57;;;6.07;;
920;SDS011;447;51.332;6.778;2023-05-14T09:44:24;7.03;;;6.43;;
920;SDS011;447;51.332;6.778;2023-05-14T09:46:52;8.40;;;6.63;;
920;SDS011;447;51.332;6.778;2023-05-14T09:49:19;7.70;;;7.00;;
920;SDS011;447;51.332;6.778;2023-05-14T09:51:45;6.20;;;5.70;;
920;SDS011;447;51.332;6.778;2023-05-14T09:54:13;7.40;;;6.70;;
920;SDS011;447;51.332;6.778;2023-05-14T09:56:39;6.70;;;6.10;;
920;SDS011;447;51.332;6.778;2023-05-14T09:59:05;6.67;;;5.97;;
920;SDS011;447;51.332;6.778;2023-05-14T10:01:31;6.93;;;6.33;;
920;SDS011;447;51.332;6.778;2023-05-14T10:03:57;6.37;;;5.77;;
920;SDS011;447;51.332;6.778;2023-05-14T10:06:27;6.93;;;6.27;;
920;SDS011;447;51.332;6.778;2023-05-14T10:08:59;7.50;;;6.90;;
920;SDS011;447;51.332;6.778;2023-05-14T10:11:27;6.47;;;6.00;;
920;SDS011;447;51.332;6.778;2023-05-14T10:14:01;6.17;;;5.53;;
920;SDS011;447;51.332;6.778;2023-05-14T10:16:39;7.30;;;6.60;;
920;SDS011;447;51.332;6.778;2023-05-14T10:19:26;6.87;;;6.20;;
920;SDS011;447;51.332;6.778;2023-05-14T10:21:55;6.20;;;5.70;;
920;SDS011;447;51.332;6.778;2023-05-14T10:24:28;7.27;;;6.67;;
920;SDS011;447;51.332;6.778;2023-05-14T10:26:55;6.10;;;5.50;;
920;SDS011;447;51.332;6.778;2023-05-14T10:29:35;6.30;;;5.80;;
920;SDS011;447;51.332;6.778;2023-05-14T10:32:06;7.03;;;6.40;;
920;SDS011;447;51.332;6.778;2023-05-14T10:34:40;8.13;;;7.03;;
920;SDS011;447;51.332;6.778;2023-05-14T10:39:44;6.50;;;5.90;;
920;SDS011;447;51.332;6.778;2023-05-14T10:42:20;7.20;;;6.47;;
920;SDS011;447;51.332;6.778;2023-05-14T10:45:05;8.97;;;6.00;;
920;SDS011;447;51.332;6.778;2023-05-14T10:47:43;6.30;;;5.80;;
920;SDS011;447;51.332;6.778;2023-05-14T10:50:11;5.90;;;5.27;;
920;SDS011;447;51.332;6.778;2023-05-14T10:52:40;5.93;;;5.43;;
920;SDS011;447;51.332;6.778;2023-05-14T10:55:07;6.30;;;5.70;;
920;SDS011;447;51.332;6.778;2023-05-14T10:57:37;6.47;;;5.87;;
920;SDS011;447;51.332;6.778;2023-05-14T11:00:06;6.40;;;5.87;;
920;SDS011;447;51.332;6.778;2023-05-14T11:02:34;6.33;;;5.83;;
920;SDS011;447;51.332;6.778;2023-05-14T11:07:45;6.37;;;5.80;;
920;SDS011;447;51.332;6.778;2023-05-14T11:10:15;6.43;;;5.83;;
920;SDS011;447;51.332;6.778;2023-05-14T11:12:45;7.00;;;5.93;;
920;SDS011;447;51.332;6.778;2023-05-14T11:15:16;8.33;;;5.63;;
920;SDS011;447;51.332;6.778;2023-05-14T11:17:43;5.50;;;5.10;;
920;SDS011;447;51.332;6.778;2023-05-14T11:20:13;5.60;;;5.10;;
920;SDS011;447;51.332;6.778;2023-05-14T11:22:42;5.90;;;5.47;;
920;SDS011;447;51.332;6.778;2023-05-14T11:25:09;5.60;;;5.10;;
920;SDS011;447;51.332;6.778;2023-05-14T11:27:38;6.40;;;5.80;;
920;SDS011;447;51.332;6.778;2023-05-14T11:32:37;5.00;;;4.57;;
920;SDS011;447;51.332;6.778;2023-05-14T11:35:04;5.27;;;4.77;;
920;SDS011;447;51.332;6.778;2023-05-14T11:37:30;7.43;;;5.60;;
920;SDS011;447;51.332;6.778;2023-05-14T11:39:58;4.90;;;4.50;;
920;SDS011;447;51.332;6.778;2023-05-14T11:42:25;5.33;;;4.83;;
920;SDS011;447;51.332;6.778;2023-05-14T11:44:51;5.33;;;4.83;;
920;SDS011;447;51.332;6.778;2023-05-14T11:47:21;5.03;;;4.63;;
920;SDS011;447;51.332;6.778;2023-05-14T11:49:47;5.17;;;4.77;;
920;SDS011;447;51.332;6.778;2023-05-14T11:52:14;5.07;;;4.60;;
920;SDS011;447;51.332;6.778;2023-05-14T11:54:43;4.57;;;4.27;;
920;SDS011;447;51.332;6.778;2023-05-14T11:57:20;5.10;;;4.70;;
920;SDS011;447;51.332;6.778;2023-05-14T11:59:47;5.87;;;4.50;;
920;SDS011;447;51.332;6.778;2023-05-14T12:02:19;5.17;;;4.00;;
920;SDS011;447;51.332;6.778;2023-05-14T12:04:48;5.40;;;5.00;;
920;SDS011;447;51.332;6.778;2023-05-14T12:07:20;4.63;;;4.23;;
920;SDS011;447;51.332;6.778;2023-05-14T12:09:46;5.07;;;4.67;;
920;SDS011;447;51.332;6.778;2023-05-14T12:12:15;4.80;;;4.37;;
920;SDS011;447;51.332;6.778;2023-05-14T12:14:43;4.43;;;4.10;;
920;SDS011;447;51.332;6.778;2023-05-14T12:17:21;4.60;;;4.00;;
920;SDS011;447;51.332;6.778;2023-05-14T12:19:48;4.50;;;4.20;;
920;SDS011;447;51.332;6.778;2023-05-14T12:22:16;5.27;;;4.87;;
920;SDS011;447;51.332;6.778;2023-05-14T12:24:54;5.50;;;5.00;;
920;SDS011;447;51.332;6.778;2023-05-14T12:27:26;5.00;;;4.60;;
920;SDS011;447;51.332;6.778;2023-05-14T12:29:57;4.90;;;4.50;;
920;SDS011;447;51.332;6.778;2023-05-14T12:32:32;6.30;;;5.13;;
920;SDS011;447;51.332;6.778;2023-05-14T12:34:58;4.97;;;4.57;;
920;SDS011;447;51.332;6.778;2023-05-14T12:37:25;4.10;;;3.80;;
920;SDS011;447;51.332;6.778;2023-05-14T12:39:56;5.17;;;4.67;;
920;SDS011;447;51.332;6.778;2023-05-14T12:42:22;5.10;;;4.57;;
920;SDS011;447;51.332;6.778;2023-05-14T12:44:48;4.40;;;4.10;;
920;SDS011;447;51.332;6.778;2023-05-14T12:47:14;4.50;;;4.20;;
920;SDS011;447;51.332;6.778;2023-05-14T12:49:41;4.90;;;4.50;;
920;SDS011;447;51.332;6.778;2023-05-14T12:52:07;4.47;;;4.17;;
920;SDS011;447;51.332;6.778;2023-05-14T12:54:33;5.80;;;4.63;;
920;SDS011;447;51.332;6.778;2023-05-14T12:56:59;4.60;;;4.17;;
920;SDS011;447;51.332;6.778;2023-05-14T12:59:25;6.97;;;5.00;;
920;SDS011;447;51.332;6.778;2023-05-14T13:01:51;4.93;;;4.53;;
920;SDS011;447;51.332;6.778;2023-05-14T13:04:16;5.10;;;4.70;;
920;SDS011;447;51.332;6.778;2023-05-14T13:06:42;4.30;;;4.00;;
920;SDS011;447;51.332;6.778;2023-05-14T13:09:08;4.93;;;4.50;;
920;SDS011;447;51.332;6.778;2023-05-14T13:11:34;4.20;;;3.80;;
920;SDS011;447;51.332;6.778;2023-05-14T13:14:00;4.70;;;4.30;;
920;SDS011;447;51.332;6.778;2023-05-14T13:16:27;4.97;;;4.57;;
920;SDS011;447;51.332;6.778;2023-05-14T13:18:54;4.90;;;4.50;;
920;SDS011;447;51.332;6.778;2023-05-14T13:21:20;3.93;;;3.63;;
920;SDS011;447;51.332;6.778;2023-05-14T13:23:46;4.27;;;3.97;;
920;SDS011;447;51.332;6.778;2023-05-14T13:26:15;5.37;;;4.43;;
920;SDS011;447;51.332;6.778;2023-05-14T13:28:41;4.20;;;3.83;;
920;SDS011;447;51.332;6.778;2023-05-14T13:31:10;8.40;;;4.67;;
920;SDS011;447;51.332;6.778;2023-05-14T13:33:39;4.20;;;3.90;;
920;SDS011;447;51.332;6.778;2023-05-14T13:36:07;3.97;;;3.67;;
920;SDS011;447;51.332;6.778;2023-05-14T13:38:33;4.40;;;4.00;;
920;SDS011;447;51.332;6.778;2023-05-14T13:40:59;4.33;;;3.93;;
920;SDS011;447;51.332;6.778;2023-05-14T13:43:32;4.20;;;3.90;;
920;SDS011;447;51.332;6.778;2023-05-14T13:45:59;4.60;;;4.20;;
920;SDS011;447;51.332;6.778;2023-05-14T13:48:25;5.70;;;4.00;;
920;SDS011;447;51.332;6.778;2023-05-14T13:50:52;4.60;;;4.20;;
920;SDS011;447;51.332;6.778;2023-05-14T13:53:18;4.70;;;4.30;;
920;SDS011;447;51.332;6.778;2023-05-14T13:55:45;4.27;;;3.93;;
920;SDS011;447;51.332;6.778;2023-05-14T13:58:11;4.83;;;4.40;;
920;SDS011;447;51.332;6.778;2023-05-14T14:00:37;3.90;;;3.60;;
920;SDS011;447;51.332;6.778;2023-05-14T14:03:04;4.13;;;3.80;;
920;SDS011;447;51.332;6.778;2023-05-14T14:05:34;4.30;;;4.00;;
920;SDS011;447;51.332;6.778;2023-05-14T14:08:00;4.87;;;4.50;;
920;SDS011;447;51.332;6.778;2023-05-14T14:10:26;4.80;;;4.40;;
920;SDS011;447;51.332;6.778;2023-05-14T14:12:52;4.70;;;4.30;;
920;SDS011;447;51.332;6.778;2023-05-14T14:15:18;4.90;;;4.07;;
920;SDS011;447;51.332;6.778;2023-05-14T14:17:44;4.93;;;4.43;;
920;SDS011;447;51.332;6.778;2023-05-14T14:20:10;4.23;;;3.83;;
920;SDS011;447;51.332;6.778;2023-05-14T14:22:37;3.70;;;3.40;;
920;SDS011;447;51.332;6.778;2023-05-14T14:25:03;4.40;;;3.50;;
920;SDS011;447;51.332;6.778;2023-05-14T14:27:31;4.90;;;4.40;;
920;SDS011;447;51.332;6.778;2023-05-14T14:29:59;4.73;;;4.30;;
920;SDS011;447;51.332;6.778;2023-05-14T14:32:25;5.20;;;4.70;;
920;SDS011;447;51.332;6.778;2023-05-14T14:34:51;4.23;;;3.93;;
920;SDS011;447;51.332;6.778;2023-05-14T14:37:16;4.33;;;4.03;;
920;SDS011;447;51.332;6.778;2023-05-14T14:39:42;4.20;;;3.83;;
920;SDS011;447;51.332;6.778;2023-05-14T14:42:08;4.27;;;3.97;;
920;SDS011;447;51.332;6.778;2023-05-14T14:44:34;4.73;;;4.17;;
920;SDS011;447;51.332;6.778;2023-05-14T14:47:00;4.50;;;3.93;;
920;SDS011;447;51.332;6.778;2023-05-14T14:49:26;5.70;;;4.57;;
920;SDS011;447;51.332;6.778;2023-05-14T14:51:52;4.43;;;4.03;;
920;SDS011;447;51.332;6.778;2023-05-14T14:54:18;4.63;;;4.30;;
920;SDS011;447;51.332;6.778;2023-05-14T14:56:44;4.50;;;4.10;;
920;SDS011;447;51.332;6.778;2023-05-14T14:59:12;4.23;;;3.93;;
920;SDS011;447;51.332;6.778;2023-05-14T15:01:38;4.30;;;3.83;;
920;SDS011;447;51.332;6.778;2023-05-14T15:04:04;4.83;;;4.43;;
920;SDS011;447;51.332;6.778;2023-05-14T15:06:30;4.80;;;4.30;;
920;SDS011;447;51.332;6.778;2023-05-14T15:08:56;4.97;;;4.50;;
920;SDS011;447;51.332;6.778;2023-05-14T15:11:23;5.33;;;4.60;;
920;SDS011;447;51.332;6.778;2023-05-14T15:13:49;5.10;;;4.60;;
920;SDS011;447;51.332;6.778;2023-05-14T15:16:15;4.67;;;4.27;;
920;SDS011;447;51.332;6.778;2023-05-14T15:18:41;5.07;;;4.60;;
920;SDS011;447;51.332;6.778;2023-05-14T15:21:07;5.77;;;4.30;;
920;SDS011;447;51.332;6.778;2023-05-14T15:23:33;4.97;;;4.60;;
920;SDS011;447;51.332;6.778;2023-05-14T15:25:59;4.93;;;4.53;;
920;SDS011;447;51.332;6.778;2023-05-14T15:28:25;5.30;;;4.90;;
920;SDS011;447;51.332;6.778;2023-05-14T15:30:51;5.33;;;4.83;;
920;SDS011;447;51.332;6.778;2023-05-14T15:33:17;4.53;;;4.13;;
920;SDS011;447;51.332;6.778;2023-05-14T15:35:44;4.07;;;3.77;;
920;SDS011;447;51.332;6.778;2023-05-14T15:38:10;4.67;;;4.30;;
920;SDS011;447;51.332;6.778;2023-05-14T15:40:36;5.13;;;4.73;;
920;SDS011;447;51.332;6.778;2023-05-14T15:43:02;4.73;;;4.33;;
920;SDS011;447;51.332;6.778;2023-05-14T15:45:28;4.53;;;4.13;;
920;SDS011;447;51.332;6.778;2023-05-14T15:47:54;4.67;;;4.27;;
920;SDS011;447;51.332;6.778;2023-05-14T15:50:20;4.80;;;4.40;;
920;SDS011;447;51.332;6.778;2023-05-14T15:52:46;4.50;;;4.03;;
920;SDS011;447;51.332;6.778;2023-05-14T15:55:13;4.67;;;4.10;;
920;SDS011;447;51.332;6.778;2023-05-14T15:57:39;4.23;;;3.93;;
920;SDS011;447;51.332;6.778;2023-05-14T16:00:05;4.50;;;4.20;;